Diberville, Mississippi
Current Conditions -  °F | °C
As of 6:58 AM on Tuesday 21 Oct 2014 (Local Time) from KBIX Reporting Station
Clear Clear  
Wind Chill: 56°   Ceiling: Unl
Heat Index: 56°   Visibility: 10mi
Dew Point: 51°   Wind: 6mph
Humidity: 84%   Direction: 20°NNE
Pressure: 30.03"   Gusts: NA
Location:  30.44°N, 88.9°W
Report Text: KBIX 211158Z AUTO 02005KT 10SM CLR 13/11 A3003 RMK AO2 SLP172 T01330107 10156 20131 52011
Loading
Personal Weather Stations






























Interactive Weather Map
Tropical Storm Tracking
New forecast layout! Learn more

10-Day Weather Forecast

Advertisements
Track Severe Weather on mobile